sensor_id;sensor_type;location;lat;lon;timestamp;P1;durP1;ratioP1;P2;durP2;ratioP2
1180;SDS011;579;52.046;8.532;2023-03-14T00:01:09;0.20;;;0.20;;
1180;SDS011;579;52.046;8.532;2023-03-14T00:08:39;0.40;;;0.40;;
1180;SDS011;579;52.046;8.532;2023-03-14T00:11:06;0.30;;;0.30;;
1180;SDS011;579;52.046;8.532;2023-03-14T00:13:34;0.30;;;0.30;;
1180;SDS011;579;52.046;8.532;2023-03-14T00:16:02;0.35;;;0.35;;
1180;SDS011;579;52.046;8.532;2023-03-14T00:18:29;0.30;;;0.30;;
1180;SDS011;579;52.046;8.532;2023-03-14T00:20:57;0.40;;;0.40;;
1180;SDS011;579;52.046;8.532;2023-03-14T00:23:23;0.63;;;0.63;;
1180;SDS011;579;52.046;8.532;2023-03-14T00:25:50;0.60;;;0.60;;
1180;SDS011;579;52.046;8.532;2023-03-14T00:33:22;0.20;;;0.20;;
1180;SDS011;579;52.046;8.532;2023-03-14T00:35:52;0.30;;;0.30;;
1180;SDS011;579;52.046;8.532;2023-03-14T00:38:20;0.20;;;0.20;;
1180;SDS011;579;52.046;8.532;2023-03-14T00:40:46;0.30;;;0.30;;
1180;SDS011;579;52.046;8.532;2023-03-14T00:43:12;0.20;;;0.20;;
1180;SDS011;579;52.046;8.532;2023-03-14T00:45:39;0.10;;;0.10;;
1180;SDS011;579;52.046;8.532;2023-03-14T00:48:05;0.10;;;0.10;;
1180;SDS011;579;52.046;8.532;2023-03-14T00:55:36;0.20;;;0.20;;
1180;SDS011;579;52.046;8.532;2023-03-14T00:58:03;0.20;;;0.20;;
1180;SDS011;579;52.046;8.532;2023-03-14T01:00:29;0.20;;;0.20;;
1180;SDS011;579;52.046;8.532;2023-03-14T01:02:55;0.20;;;0.20;;
1180;SDS011;579;52.046;8.532;2023-03-14T01:05:22;0.28;;;0.28;;
1180;SDS011;579;52.046;8.532;2023-03-14T01:07:48;0.22;;;0.22;;
1180;SDS011;579;52.046;8.532;2023-03-14T01:10:15;0.22;;;0.22;;
1180;SDS011;579;52.046;8.532;2023-03-14T01:12:42;0.20;;;0.20;;
1180;SDS011;579;52.046;8.532;2023-03-14T01:18:04;0.30;;;0.30;;
1180;SDS011;579;52.046;8.532;2023-03-14T01:20:30;0.20;;;0.20;;
1180;SDS011;579;52.046;8.532;2023-03-14T01:22:57;0.30;;;0.30;;
1180;SDS011;579;52.046;8.532;2023-03-14T01:25:23;0.40;;;0.40;;
1180;SDS011;579;52.046;8.532;2023-03-14T01:27:49;0.40;;;0.40;;
1180;SDS011;579;52.046;8.532;2023-03-14T01:30:16;0.30;;;0.30;;
1180;SDS011;579;52.046;8.532;2023-03-14T01:32:42;0.30;;;0.30;;
1180;SDS011;579;52.046;8.532;2023-03-14T01:37:49;0.20;;;0.20;;
1180;SDS011;579;52.046;8.532;2023-03-14T01:40:15;0.30;;;0.30;;
1180;SDS011;579;52.046;8.532;2023-03-14T01:42:46;0.17;;;0.17;;
1180;SDS011;579;52.046;8.532;2023-03-14T01:48:47;0.20;;;0.20;;
1180;SDS011;579;52.046;8.532;2023-03-14T01:51:34;0.20;;;0.20;;
1180;SDS011;579;52.046;8.532;2023-03-14T01:54:08;0.20;;;0.20;;
1180;SDS011;579;52.046;8.532;2023-03-14T02:03:09;0.20;;;0.20;;
1180;SDS011;579;52.046;8.532;2023-03-14T02:05:41;0.10;;;0.10;;
1180;SDS011;579;52.046;8.532;2023-03-14T02:08:08;0.20;;;0.20;;
1180;SDS011;579;52.046;8.532;2023-03-14T02:10:39;0.20;;;0.20;;
1180;SDS011;579;52.046;8.532;2023-03-14T02:13:08;0.10;;;0.10;;
1180;SDS011;579;52.046;8.532;2023-03-14T02:15:36;0.10;;;0.10;;
1180;SDS011;579;52.046;8.532;2023-03-14T02:18:04;0.20;;;0.20;;
1180;SDS011;579;52.046;8.532;2023-03-14T02:23:23;0.40;;;0.40;;
1180;SDS011;579;52.046;8.532;2023-03-14T02:25:58;0.20;;;0.20;;
1180;SDS011;579;52.046;8.532;2023-03-14T02:28:30;0.20;;;0.20;;
1180;SDS011;579;52.046;8.532;2023-03-14T02:30:56;0.20;;;0.20;;
1180;SDS011;579;52.046;8.532;2023-03-14T02:33:22;0.30;;;0.30;;
1180;SDS011;579;52.046;8.532;2023-03-14T02:35:50;0.30;;;0.30;;
1180;SDS011;579;52.046;8.532;2023-03-14T02:38:20;0.30;;;0.30;;
1180;SDS011;579;52.046;8.532;2023-03-14T02:47:37;0.22;;;0.22;;
1180;SDS011;579;52.046;8.532;2023-03-14T02:50:09;0.20;;;0.20;;
1180;SDS011;579;52.046;8.532;2023-03-14T02:52:40;0.10;;;0.10;;
1180;SDS011;579;52.046;8.532;2023-03-14T02:55:06;0.20;;;0.20;;
1180;SDS011;579;52.046;8.532;2023-03-14T02:57:33;0.20;;;0.20;;
1180;SDS011;579;52.046;8.532;2023-03-14T02:59:59;0.10;;;0.10;;
1180;SDS011;579;52.046;8.532;2023-03-14T03:02:29;0.10;;;0.10;;
1180;SDS011;579;52.046;8.532;2023-03-14T03:10:00;0.00;;;0.00;;
1180;SDS011;579;52.046;8.532;2023-03-14T03:12:26;0.00;;;0.00;;
1180;SDS011;579;52.046;8.532;2023-03-14T03:14:52;0.10;;;0.10;;
1180;SDS011;579;52.046;8.532;2023-03-14T03:17:18;0.10;;;0.10;;
1180;SDS011;579;52.046;8.532;2023-03-14T03:19:44;0.10;;;0.10;;
1180;SDS011;579;52.046;8.532;2023-03-14T03:22:10;0.10;;;0.10;;
1180;SDS011;579;52.046;8.532;2023-03-14T03:24:36;0.00;;;0.00;;
1180;SDS011;579;52.046;8.532;2023-03-14T03:27:04;0.00;;;0.00;;
1180;SDS011;579;52.046;8.532;2023-03-14T03:31:12;0.00;;;0.00;;
1180;SDS011;579;52.046;8.532;2023-03-14T03:33:38;0.03;;;0.03;;
1180;SDS011;579;52.046;8.532;2023-03-14T03:36:05;0.10;;;0.10;;
1180;SDS011;579;52.046;8.532;2023-03-14T03:38:33;0.00;;;0.00;;
1180;SDS011;579;52.046;8.532;2023-03-14T03:41:01;0.00;;;0.00;;
1180;SDS011;579;52.046;8.532;2023-03-14T03:43:29;0.00;;;0.00;;
1180;SDS011;579;52.046;8.532;2023-03-14T03:45:55;0.10;;;0.10;;
1180;SDS011;579;52.046;8.532;2023-03-14T03:48:22;0.00;;;0.00;;
1180;SDS011;579;52.046;8.532;2023-03-14T03:55:53;0.10;;;0.10;;
1180;SDS011;579;52.046;8.532;2023-03-14T03:58:19;0.10;;;0.10;;
1180;SDS011;579;52.046;8.532;2023-03-14T04:00:45;0.10;;;0.10;;
1180;SDS011;579;52.046;8.532;2023-03-14T04:03:11;0.10;;;0.10;;
1180;SDS011;579;52.046;8.532;2023-03-14T04:05:38;0.10;;;0.10;;
1180;SDS011;579;52.046;8.532;2023-03-14T04:08:04;0.10;;;0.10;;
1180;SDS011;579;52.046;8.532;2023-03-14T04:10:33;0.10;;;0.10;;
1180;SDS011;579;52.046;8.532;2023-03-14T04:15:41;0.00;;;0.00;;
1180;SDS011;579;52.046;8.532;2023-03-14T04:18:07;0.10;;;0.10;;
1180;SDS011;579;52.046;8.532;2023-03-14T04:20:34;0.00;;;0.00;;
1180;SDS011;579;52.046;8.532;2023-03-14T04:23:00;0.10;;;0.10;;
1180;SDS011;579;52.046;8.532;2023-03-14T04:25:26;0.10;;;0.10;;
1180;SDS011;579;52.046;8.532;2023-03-14T04:27:52;0.10;;;0.10;;
1180;SDS011;579;52.046;8.532;2023-03-14T04:30:19;0.10;;;0.10;;
1180;SDS011;579;52.046;8.532;2023-03-14T04:32:46;0.10;;;0.10;;
1180;SDS011;579;52.046;8.532;2023-03-14T04:35:27;0.10;;;0.10;;
1180;SDS011;579;52.046;8.532;2023-03-14T04:37:55;0.10;;;0.10;;
1180;SDS011;579;52.046;8.532;2023-03-14T04:40:22;0.15;;;0.15;;
1180;SDS011;579;52.046;8.532;2023-03-14T04:42:48;0.10;;;0.10;;
1180;SDS011;579;52.046;8.532;2023-03-14T04:45:14;0.15;;;0.15;;
1180;SDS011;579;52.046;8.532;2023-03-14T04:47:40;0.10;;;0.10;;
1180;SDS011;579;52.046;8.532;2023-03-14T04:50:07;0.10;;;0.10;;
1180;SDS011;579;52.046;8.532;2023-03-14T04:52:35;0.10;;;0.10;;
1180;SDS011;579;52.046;8.532;2023-03-14T05:00:07;0.20;;;0.20;;
1180;SDS011;579;52.046;8.532;2023-03-14T05:02:35;0.10;;;0.10;;
1180;SDS011;579;52.046;8.532;2023-03-14T05:05:01;0.10;;;0.10;;
1180;SDS011;579;52.046;8.532;2023-03-14T05:07:28;0.20;;;0.20;;
1180;SDS011;579;52.046;8.532;2023-03-14T05:09:54;0.10;;;0.10;;
1180;SDS011;579;52.046;8.532;2023-03-14T05:12:20;0.10;;;0.10;;
1180;SDS011;579;52.046;8.532;2023-03-14T05:14:46;0.15;;;0.15;;
1180;SDS011;579;52.046;8.532;2023-03-14T05:17:13;0.10;;;0.10;;
1180;SDS011;579;52.046;8.532;2023-03-14T05:24:45;0.10;;;0.10;;
1180;SDS011;579;52.046;8.532;2023-03-14T05:27:11;0.10;;;0.10;;
1180;SDS011;579;52.046;8.532;2023-03-14T05:29:38;0.10;;;0.10;;
1180;SDS011;579;52.046;8.532;2023-03-14T05:32:04;0.10;;;0.10;;
1180;SDS011;579;52.046;8.532;2023-03-14T05:34:31;0.10;;;0.10;;
1180;SDS011;579;52.046;8.532;2023-03-14T05:36:57;0.17;;;0.17;;
1180;SDS011;579;52.046;8.532;2023-03-14T05:39:23;0.10;;;0.10;;
1180;SDS011;579;52.046;8.532;2023-03-14T05:41:50;0.10;;;0.10;;
1180;SDS011;579;52.046;8.532;2023-03-14T05:49:24;0.10;;;0.10;;
1180;SDS011;579;52.046;8.532;2023-03-14T05:51:50;0.10;;;0.10;;
1180;SDS011;579;52.046;8.532;2023-03-14T05:54:17;0.10;;;0.10;;
1180;SDS011;579;52.046;8.532;2023-03-14T05:56:43;0.10;;;0.10;;
1180;SDS011;579;52.046;8.532;2023-03-14T05:59:09;0.10;;;0.10;;
1180;SDS011;579;52.046;8.532;2023-03-14T06:01:35;0.10;;;0.10;;
1180;SDS011;579;52.046;8.532;2023-03-14T06:04:01;0.10;;;0.10;;
1180;SDS011;579;52.046;8.532;2023-03-14T06:09:07;0.10;;;0.10;;
1180;SDS011;579;52.046;8.532;2023-03-14T06:11:33;0.10;;;0.10;;
1180;SDS011;579;52.046;8.532;2023-03-14T06:13:59;0.20;;;0.20;;
1180;SDS011;579;52.046;8.532;2023-03-14T06:16:26;0.10;;;0.10;;
1180;SDS011;579;52.046;8.532;2023-03-14T06:18:52;0.17;;;0.17;;
1180;SDS011;579;52.046;8.532;2023-03-14T06:21:18;0.20;;;0.20;;
1180;SDS011;579;52.046;8.532;2023-03-14T06:23:44;0.10;;;0.10;;
1180;SDS011;579;52.046;8.532;2023-03-14T06:26:11;0.10;;;0.10;;
1180;SDS011;579;52.046;8.532;2023-03-14T06:33:48;0.13;;;0.13;;
1180;SDS011;579;52.046;8.532;2023-03-14T06:36:14;0.10;;;0.10;;
1180;SDS011;579;52.046;8.532;2023-03-14T06:38:40;0.10;;;0.10;;
1180;SDS011;579;52.046;8.532;2023-03-14T06:41:06;0.10;;;0.10;;
1180;SDS011;579;52.046;8.532;2023-03-14T06:43:33;0.10;;;0.10;;
1180;SDS011;579;52.046;8.532;2023-03-14T06:45:59;0.40;;;0.40;;
1180;SDS011;579;52.046;8.532;2023-03-14T06:48:25;0.10;;;0.10;;
1180;SDS011;579;52.046;8.532;2023-03-14T06:50:52;0.10;;;0.10;;
1180;SDS011;579;52.046;8.532;2023-03-14T06:58:23;0.10;;;0.10;;
1180;SDS011;579;52.046;8.532;2023-03-14T07:00:50;0.10;;;0.10;;
1180;SDS011;579;52.046;8.532;2023-03-14T07:03:17;0.10;;;0.10;;
1180;SDS011;579;52.046;8.532;2023-03-14T07:05:43;0.10;;;0.10;;
1180;SDS011;579;52.046;8.532;2023-03-14T07:08:10;0.10;;;0.10;;
1180;SDS011;579;52.046;8.532;2023-03-14T07:10:36;0.10;;;0.10;;
1180;SDS011;579;52.046;8.532;2023-03-14T07:13:02;0.10;;;0.10;;
1180;SDS011;579;52.046;8.532;2023-03-14T07:15:29;0.10;;;0.10;;
1180;SDS011;579;52.046;8.532;2023-03-14T07:23:01;0.10;;;0.10;;
1180;SDS011;579;52.046;8.532;2023-03-14T07:25:28;0.13;;;0.13;;
1180;SDS011;579;52.046;8.532;2023-03-14T07:27:54;0.10;;;0.10;;
1180;SDS011;579;52.046;8.532;2023-03-14T07:30:20;0.20;;;0.20;;
1180;SDS011;579;52.046;8.532;2023-03-14T07:32:47;0.10;;;0.10;;
1180;SDS011;579;52.046;8.532;2023-03-14T07:35:13;0.10;;;0.10;;
1180;SDS011;579;52.046;8.532;2023-03-14T07:37:39;0.10;;;0.10;;
1180;SDS011;579;52.046;8.532;2023-03-14T07:43:08;0.15;;;0.15;;
1180;SDS011;579;52.046;8.532;2023-03-14T07:45:34;0.17;;;0.17;;
1180;SDS011;579;52.046;8.532;2023-03-14T07:48:00;0.15;;;0.15;;
1180;SDS011;579;52.046;8.532;2023-03-14T07:50:27;0.10;;;0.10;;
1180;SDS011;579;52.046;8.532;2023-03-14T07:52:53;0.10;;;0.10;;
1180;SDS011;579;52.046;8.532;2023-03-14T07:55:20;0.20;;;0.20;;
1180;SDS011;579;52.046;8.532;2023-03-14T07:57:46;0.20;;;0.20;;
1180;SDS011;579;52.046;8.532;2023-03-14T08:03:07;0.10;;;0.10;;
1180;SDS011;579;52.046;8.532;2023-03-14T08:05:34;0.10;;;0.10;;
1180;SDS011;579;52.046;8.532;2023-03-14T08:08:01;0.10;;;0.10;;
1180;SDS011;579;52.046;8.532;2023-03-14T08:10:27;0.10;;;0.10;;
1180;SDS011;579;52.046;8.532;2023-03-14T08:12:54;0.10;;;0.10;;
1180;SDS011;579;52.046;8.532;2023-03-14T08:15:22;0.10;;;0.10;;
1180;SDS011;579;52.046;8.532;2023-03-14T08:17:48;0.20;;;0.20;;
1180;SDS011;579;52.046;8.532;2023-03-14T08:20:16;0.10;;;0.10;;
1180;SDS011;579;52.046;8.532;2023-03-14T08:25:35;0.20;;;0.20;;
1180;SDS011;579;52.046;8.532;2023-03-14T08:28:01;0.10;;;0.10;;
1180;SDS011;579;52.046;8.532;2023-03-14T08:30:27;0.17;;;0.17;;
1180;SDS011;579;52.046;8.532;2023-03-14T08:32:55;0.10;;;0.10;;
1180;SDS011;579;52.046;8.532;2023-03-14T08:35:22;0.10;;;0.10;;
1180;SDS011;579;52.046;8.532;2023-03-14T08:37:48;0.10;;;0.10;;
1180;SDS011;579;52.046;8.532;2023-03-14T08:40:15;0.10;;;0.10;;
1180;SDS011;579;52.046;8.532;2023-03-14T08:45:22;0.10;;;0.10;;
1180;SDS011;579;52.046;8.532;2023-03-14T08:47:50;0.20;;;0.20;;
1180;SDS011;579;52.046;8.532;2023-03-14T08:50:16;0.20;;;0.20;;
1180;SDS011;579;52.046;8.532;2023-03-14T08:52:42;0.20;;;0.20;;
1180;SDS011;579;52.046;8.532;2023-03-14T08:55:09;0.10;;;0.10;;
1180;SDS011;579;52.046;8.532;2023-03-14T08:57:35;0.10;;;0.10;;
1180;SDS011;579;52.046;8.532;2023-03-14T09:00:02;0.20;;;0.20;;
1180;SDS011;579;52.046;8.532;2023-03-14T09:02:36;0.10;;;0.10;;
1180;SDS011;579;52.046;8.532;2023-03-14T09:10:09;0.10;;;0.10;;
1180;SDS011;579;52.046;8.532;2023-03-14T09:12:36;0.10;;;0.10;;
1180;SDS011;579;52.046;8.532;2023-03-14T09:15:03;0.10;;;0.10;;
1180;SDS011;579;52.046;8.532;2023-03-14T09:17:30;0.10;;;0.10;;
1180;SDS011;579;52.046;8.532;2023-03-14T09:19:57;0.20;;;0.20;;
1180;SDS011;579;52.046;8.532;2023-03-14T09:22:23;0.10;;;0.10;;
1180;SDS011;579;52.046;8.532;2023-03-14T09:24:49;0.10;;;0.10;;
1180;SDS011;579;52.046;8.532;2023-03-14T09:31:05;0.10;;;0.10;;
1180;SDS011;579;52.046;8.532;2023-03-14T09:33:33;0.20;;;0.20;;
1180;SDS011;579;52.046;8.532;2023-03-14T09:35:59;0.20;;;0.20;;
1180;SDS011;579;52.046;8.532;2023-03-14T09:38:25;0.30;;;0.30;;
1180;SDS011;579;52.046;8.532;2023-03-14T09:40:51;0.30;;;0.30;;
1180;SDS011;579;52.046;8.532;2023-03-14T09:43:19;0.20;;;0.20;;
1180;SDS011;579;52.046;8.532;2023-03-14T09:45:47;0.35;;;0.35;;
1180;SDS011;579;52.046;8.532;2023-03-14T09:48:17;0.28;;;0.28;;
1180;SDS011;579;52.046;8.532;2023-03-14T09:55:50;0.22;;;0.22;;
1180;SDS011;579;52.046;8.532;2023-03-14T09:58:19;0.40;;;0.40;;
1180;SDS011;579;52.046;8.532;2023-03-14T10:00:48;0.22;;;0.22;;
1180;SDS011;579;52.046;8.532;2023-03-14T10:03:24;0.30;;;0.30;;
1180;SDS011;579;52.046;8.532;2023-03-14T10:05:53;0.20;;;0.20;;
1180;SDS011;579;52.046;8.532;2023-03-14T10:08:21;0.35;;;0.35;;
1180;SDS011;579;52.046;8.532;2023-03-14T10:10:47;0.30;;;0.30;;
1180;SDS011;579;52.046;8.532;2023-03-14T10:13:15;0.30;;;0.30;;
1180;SDS011;579;52.046;8.532;2023-03-14T10:20:45;0.28;;;0.28;;
1180;SDS011;579;52.046;8.532;2023-03-14T10:23:21;0.20;;;0.20;;
1180;SDS011;579;52.046;8.532;2023-03-14T10:25:59;0.20;;;0.20;;
1180;SDS011;579;52.046;8.532;2023-03-14T10:28:32;0.30;;;0.30;;
1180;SDS011;579;52.046;8.532;2023-03-14T10:31:04;0.25;;;0.25;;
1180;SDS011;579;52.046;8.532;2023-03-14T10:33:32;0.30;;;0.30;;
1180;SDS011;579;52.046;8.532;2023-03-14T10:36:01;0.30;;;0.30;;
1180;SDS011;579;52.046;8.532;2023-03-14T10:41:15;0.30;;;0.30;;
1180;SDS011;579;52.046;8.532;2023-03-14T10:43:44;0.30;;;0.30;;
1180;SDS011;579;52.046;8.532;2023-03-14T10:46:15;0.30;;;0.30;;
1180;SDS011;579;52.046;8.532;2023-03-14T10:48:44;0.40;;;0.40;;
1180;SDS011;579;52.046;8.532;2023-03-14T10:51:11;0.30;;;0.30;;
1180;SDS011;579;52.046;8.532;2023-03-14T10:53:46;0.20;;;0.20;;
1180;SDS011;579;52.046;8.532;2023-03-14T10:56:16;0.30;;;0.30;;
1180;SDS011;579;52.046;8.532;2023-03-14T10:58:45;0.30;;;0.30;;
1180;SDS011;579;52.046;8.532;2023-03-14T11:06:32;0.20;;;0.20;;
1180;SDS011;579;52.046;8.532;2023-03-14T11:09:07;0.20;;;0.20;;
1180;SDS011;579;52.046;8.532;2023-03-14T11:11:45;0.20;;;0.20;;
1180;SDS011;579;52.046;8.532;2023-03-14T11:14:15;0.20;;;0.20;;
1180;SDS011;579;52.046;8.532;2023-03-14T11:16:52;0.20;;;0.20;;
1180;SDS011;579;52.046;8.532;2023-03-14T11:19:31;0.10;;;0.10;;
1180;SDS011;579;52.046;8.532;2023-03-14T11:22:08;0.10;;;0.10;;
1180;SDS011;579;52.046;8.532;2023-03-14T11:29:55;0.10;;;0.10;;
1180;SDS011;579;52.046;8.532;2023-03-14T11:32:30;0.10;;;0.10;;
1180;SDS011;579;52.046;8.532;2023-03-14T11:35:11;0.10;;;0.10;;
1180;SDS011;579;52.046;8.532;2023-03-14T11:37:51;0.15;;;0.15;;
1180;SDS011;579;52.046;8.532;2023-03-14T11:40:21;0.20;;;0.20;;
1180;SDS011;579;52.046;8.532;2023-03-14T11:42:51;0.10;;;0.10;;
1180;SDS011;579;52.046;8.532;2023-03-14T11:45:27;0.10;;;0.10;;
1180;SDS011;579;52.046;8.532;2023-03-14T11:48:16;0.10;;;0.10;;
1180;SDS011;579;52.046;8.532;2023-03-14T11:50:52;0.30;;;0.30;;
1180;SDS011;579;52.046;8.532;2023-03-14T11:53:21;0.20;;;0.20;;
1180;SDS011;579;52.046;8.532;2023-03-14T11:56:00;0.10;;;0.10;;
1180;SDS011;579;52.046;8.532;2023-03-14T11:58:29;0.10;;;0.10;;
1180;SDS011;579;52.046;8.532;2023-03-14T12:01:01;0.10;;;0.10;;
1180;SDS011;579;52.046;8.532;2023-03-14T12:08:48;0.10;;;0.10;;
1180;SDS011;579;52.046;8.532;2023-03-14T12:11:21;0.10;;;0.10;;
1180;SDS011;579;52.046;8.532;2023-03-14T12:13:57;0.10;;;0.10;;
1180;SDS011;579;52.046;8.532;2023-03-14T12:16:34;0.10;;;0.10;;
1180;SDS011;579;52.046;8.532;2023-03-14T12:22:08;0.10;;;0.10;;
1180;SDS011;579;52.046;8.532;2023-03-14T12:30:42;0.10;;;0.10;;
1180;SDS011;579;52.046;8.532;2023-03-14T12:36:01;0.10;;;0.10;;
1180;SDS011;579;52.046;8.532;2023-03-14T12:38:45;0.10;;;0.10;;
1180;SDS011;579;52.046;8.532;2023-03-14T12:41:22;0.10;;;0.10;;
1180;SDS011;579;52.046;8.532;2023-03-14T12:48:38;0.10;;;0.10;;
1180;SDS011;579;52.046;8.532;2023-03-14T12:51:11;0.10;;;0.10;;
1180;SDS011;579;52.046;8.532;2023-03-14T12:53:52;0.20;;;0.20;;
1180;SDS011;579;52.046;8.532;2023-03-14T12:56:57;0.20;;;0.20;;
1180;SDS011;579;52.046;8.532;2023-03-14T12:59:45;0.13;;;0.13;;
1180;SDS011;579;52.046;8.532;2023-03-14T13:02:21;0.20;;;0.20;;
1180;SDS011;579;52.046;8.532;2023-03-14T13:12:17;0.10;;;0.10;;
1180;SDS011;579;52.046;8.532;2023-03-14T13:14:49;0.13;;;0.13;;
1180;SDS011;579;52.046;8.532;2023-03-14T13:17:19;0.10;;;0.10;;
1180;SDS011;579;52.046;8.532;2023-03-14T13:19:52;0.10;;;0.10;;
1180;SDS011;579;52.046;8.532;2023-03-14T13:22:23;0.10;;;0.10;;
1180;SDS011;579;52.046;8.532;2023-03-14T13:27:38;0.20;;;0.20;;
1180;SDS011;579;52.046;8.532;2023-03-14T13:30:17;0.10;;;0.10;;
1180;SDS011;579;52.046;8.532;2023-03-14T13:32:48;0.20;;;0.20;;
1180;SDS011;579;52.046;8.532;2023-03-14T13:35:17;0.20;;;0.20;;
1180;SDS011;579;52.046;8.532;2023-03-14T13:37:47;0.20;;;0.20;;
1180;SDS011;579;52.046;8.532;2023-03-14T13:40:24;0.30;;;0.30;;
1180;SDS011;579;52.046;8.532;2023-03-14T13:47:32;0.10;;;0.10;;
1180;SDS011;579;52.046;8.532;2023-03-14T13:49:58;0.20;;;0.20;;
1180;SDS011;579;52.046;8.532;2023-03-14T13:52:28;0.20;;;0.20;;
1180;SDS011;579;52.046;8.532;2023-03-14T13:54:56;0.20;;;0.20;;
1180;SDS011;579;52.046;8.532;2023-03-14T13:57:25;0.10;;;0.10;;
1180;SDS011;579;52.046;8.532;2023-03-14T13:59:59;0.13;;;0.13;;
1180;SDS011;579;52.046;8.532;2023-03-14T14:02:32;0.10;;;0.10;;
1180;SDS011;579;52.046;8.532;2023-03-14T14:07:37;0.10;;;0.10;;
1180;SDS011;579;52.046;8.532;2023-03-14T14:10:05;0.10;;;0.10;;
1180;SDS011;579;52.046;8.532;2023-03-14T14:12:36;0.10;;;0.10;;
1180;SDS011;579;52.046;8.532;2023-03-14T14:15:05;0.10;;;0.10;;
1180;SDS011;579;52.046;8.532;2023-03-14T14:17:38;0.10;;;0.10;;
1180;SDS011;579;52.046;8.532;2023-03-14T14:20:07;0.10;;;0.10;;
1180;SDS011;579;52.046;8.532;2023-03-14T14:27:33;0.10;;;0.10;;
1180;SDS011;579;52.046;8.532;2023-03-14T14:30:05;0.10;;;0.10;;
1180;SDS011;579;52.046;8.532;2023-03-14T14:32:52;0.20;;;0.20;;
1180;SDS011;579;52.046;8.532;2023-03-14T14:35:23;0.20;;;0.20;;
1180;SDS011;579;52.046;8.532;2023-03-14T14:37:55;0.10;;;0.10;;
1180;SDS011;579;52.046;8.532;2023-03-14T14:40:23;0.20;;;0.20;;
1180;SDS011;579;52.046;8.532;2023-03-14T14:42:53;0.20;;;0.20;;
1180;SDS011;579;52.046;8.532;2023-03-14T14:45:32;0.10;;;0.10;;
1180;SDS011;579;52.046;8.532;2023-03-14T14:48:02;0.17;;;0.17;;
1180;SDS011;579;52.046;8.532;2023-03-14T14:50:33;0.10;;;0.10;;
1180;SDS011;579;52.046;8.532;2023-03-14T14:53:03;0.13;;;0.13;;
1180;SDS011;579;52.046;8.532;2023-03-14T14:55:48;0.20;;;0.20;;
1180;SDS011;579;52.046;8.532;2023-03-14T14:58:18;0.00;;;0.00;;
1180;SDS011;579;52.046;8.532;2023-03-14T15:05:46;0.10;;;0.10;;
1180;SDS011;579;52.046;8.532;2023-03-14T15:08:13;0.20;;;0.20;;
1180;SDS011;579;52.046;8.532;2023-03-14T15:10:39;0.10;;;0.10;;
1180;SDS011;579;52.046;8.532;2023-03-14T15:13:06;0.20;;;0.20;;
1180;SDS011;579;52.046;8.532;2023-03-14T15:15:32;0.20;;;0.20;;
1180;SDS011;579;52.046;8.532;2023-03-14T15:17:59;0.20;;;0.20;;
1180;SDS011;579;52.046;8.532;2023-03-14T15:20:26;0.20;;;0.20;;
1180;SDS011;579;52.046;8.532;2023-03-14T15:25:33;0.20;;;0.20;;
1180;SDS011;579;52.046;8.532;2023-03-14T15:28:00;0.30;;;0.30;;
1180;SDS011;579;52.046;8.532;2023-03-14T15:30:27;0.20;;;0.20;;
1180;SDS011;579;52.046;8.532;2023-03-14T15:32:53;0.10;;;0.10;;
1180;SDS011;579;52.046;8.532;2023-03-14T15:35:19;0.20;;;0.20;;
1180;SDS011;579;52.046;8.532;2023-03-14T15:37:45;0.13;;;0.13;;
1180;SDS011;579;52.046;8.532;2023-03-14T15:40:12;0.10;;;0.10;;
1180;SDS011;579;52.046;8.532;2023-03-14T15:45:16;0.20;;;0.20;;
1180;SDS011;579;52.046;8.532;2023-03-14T15:47:43;0.10;;;0.10;;
1180;SDS011;579;52.046;8.532;2023-03-14T15:50:09;0.10;;;0.10;;
1180;SDS011;579;52.046;8.532;2023-03-14T15:52:36;0.20;;;0.20;;
1180;SDS011;579;52.046;8.532;2023-03-14T15:55:04;0.17;;;0.17;;
1180;SDS011;579;52.046;8.532;2023-03-14T15:57:31;0.10;;;0.10;;
1180;SDS011;579;52.046;8.532;2023-03-14T15:59:57;0.20;;;0.20;;
1180;SDS011;579;52.046;8.532;2023-03-14T16:05:31;0.10;;;0.10;;
1180;SDS011;579;52.046;8.532;2023-03-14T16:07:57;0.10;;;0.10;;
1180;SDS011;579;52.046;8.532;2023-03-14T16:10:23;0.10;;;0.10;;
1180;SDS011;579;52.046;8.532;2023-03-14T16:12:49;0.20;;;0.20;;
1180;SDS011;579;52.046;8.532;2023-03-14T16:15:15;0.10;;;0.10;;
1180;SDS011;579;52.046;8.532;2023-03-14T16:17:42;0.20;;;0.20;;
1180;SDS011;579;52.046;8.532;2023-03-14T16:20:08;0.20;;;0.20;;
1180;SDS011;579;52.046;8.532;2023-03-14T16:26:03;0.10;;;0.10;;
1180;SDS011;579;52.046;8.532;2023-03-14T16:28:30;0.20;;;0.20;;
1180;SDS011;579;52.046;8.532;2023-03-14T16:31:00;0.20;;;0.20;;
1180;SDS011;579;52.046;8.532;2023-03-14T16:33:27;0.20;;;0.20;;
1180;SDS011;579;52.046;8.532;2023-03-14T16:35:54;0.28;;;0.28;;
1180;SDS011;579;52.046;8.532;2023-03-14T16:38:22;0.20;;;0.20;;
1180;SDS011;579;52.046;8.532;2023-03-14T16:46:00;0.20;;;0.20;;
1180;SDS011;579;52.046;8.532;2023-03-14T16:48:27;0.10;;;0.10;;
1180;SDS011;579;52.046;8.532;2023-03-14T16:50:55;0.10;;;0.10;;
1180;SDS011;579;52.046;8.532;2023-03-14T16:53:22;0.20;;;0.20;;
1180;SDS011;579;52.046;8.532;2023-03-14T16:55:49;0.20;;;0.20;;
1180;SDS011;579;52.046;8.532;2023-03-14T16:58:15;0.10;;;0.10;;
1180;SDS011;579;52.046;8.532;2023-03-14T17:00:43;0.30;;;0.30;;
1180;SDS011;579;52.046;8.532;2023-03-14T17:05:44;0.20;;;0.20;;
1180;SDS011;579;52.046;8.532;2023-03-14T17:08:12;0.30;;;0.30;;
1180;SDS011;579;52.046;8.532;2023-03-14T17:10:40;0.20;;;0.20;;
1180;SDS011;579;52.046;8.532;2023-03-14T17:13:06;0.10;;;0.10;;
1180;SDS011;579;52.046;8.532;2023-03-14T17:15:33;0.10;;;0.10;;
1180;SDS011;579;52.046;8.532;2023-03-14T17:17:59;0.20;;;0.20;;
1180;SDS011;579;52.046;8.532;2023-03-14T17:20:27;0.20;;;0.20;;
1180;SDS011;579;52.046;8.532;2023-03-14T17:25:33;0.10;;;0.10;;
1180;SDS011;579;52.046;8.532;2023-03-14T17:28:02;0.20;;;0.20;;
1180;SDS011;579;52.046;8.532;2023-03-14T17:30:30;0.10;;;0.10;;
1180;SDS011;579;52.046;8.532;2023-03-14T17:32:56;0.17;;;0.17;;
1180;SDS011;579;52.046;8.532;2023-03-14T17:35:22;0.10;;;0.10;;
1180;SDS011;579;52.046;8.532;2023-03-14T17:37:48;0.10;;;0.10;;
1180;SDS011;579;52.046;8.532;2023-03-14T17:40:15;0.10;;;0.10;;
1180;SDS011;579;52.046;8.532;2023-03-14T17:46:03;0.20;;;0.20;;
1180;SDS011;579;52.046;8.532;2023-03-14T17:48:35;0.20;;;0.20;;
1180;SDS011;579;52.046;8.532;2023-03-14T17:51:01;0.10;;;0.10;;
1180;SDS011;579;52.046;8.532;2023-03-14T17:53:28;0.20;;;0.20;;
1180;SDS011;579;52.046;8.532;2023-03-14T17:55:54;0.30;;;0.30;;
1180;SDS011;579;52.046;8.532;2023-03-14T17:58:21;0.20;;;0.20;;
1180;SDS011;579;52.046;8.532;2023-03-14T18:00:47;0.20;;;0.20;;
1180;SDS011;579;52.046;8.532;2023-03-14T18:06:03;0.10;;;0.10;;
1180;SDS011;579;52.046;8.532;2023-03-14T18:08:31;0.20;;;0.20;;
1180;SDS011;579;52.046;8.532;2023-03-14T18:10:57;0.10;;;0.10;;
1180;SDS011;579;52.046;8.532;2023-03-14T18:13:24;0.10;;;0.10;;
1180;SDS011;579;52.046;8.532;2023-03-14T18:15:50;0.10;;;0.10;;
1180;SDS011;579;52.046;8.532;2023-03-14T18:18:16;0.10;;;0.10;;
1180;SDS011;579;52.046;8.532;2023-03-14T18:20:47;0.10;;;0.10;;
1180;SDS011;579;52.046;8.532;2023-03-14T18:25:59;0.10;;;0.10;;
1180;SDS011;579;52.046;8.532;2023-03-14T18:28:26;0.10;;;0.10;;
1180;SDS011;579;52.046;8.532;2023-03-14T18:30:53;0.10;;;0.10;;
1180;SDS011;579;52.046;8.532;2023-03-14T18:33:25;0.10;;;0.10;;
1180;SDS011;579;52.046;8.532;2023-03-14T18:35:52;0.00;;;0.00;;
1180;SDS011;579;52.046;8.532;2023-03-14T18:38:18;0.00;;;0.00;;
1180;SDS011;579;52.046;8.532;2023-03-14T18:40:44;0.00;;;0.00;;
1180;SDS011;579;52.046;8.532;2023-03-14T18:45:49;0.00;;;0.00;;
1180;SDS011;579;52.046;8.532;2023-03-14T18:48:16;0.00;;;0.00;;
1180;SDS011;579;52.046;8.532;2023-03-14T18:50:43;0.00;;;0.00;;
1180;SDS011;579;52.046;8.532;2023-03-14T18:53:09;0.00;;;0.00;;
1180;SDS011;579;52.046;8.532;2023-03-14T18:55:36;0.00;;;0.00;;
1180;SDS011;579;52.046;8.532;2023-03-14T18:58:02;0.00;;;0.00;;
1180;SDS011;579;52.046;8.532;2023-03-14T19:00:29;0.00;;;0.00;;
1180;SDS011;579;52.046;8.532;2023-03-14T19:05:34;0.00;;;0.00;;
1180;SDS011;579;52.046;8.532;2023-03-14T19:08:02;0.00;;;0.00;;
1180;SDS011;579;52.046;8.532;2023-03-14T19:10:29;0.00;;;0.00;;
1180;SDS011;579;52.046;8.532;2023-03-14T19:12:57;0.10;;;0.10;;
1180;SDS011;579;52.046;8.532;2023-03-14T19:15:23;0.10;;;0.10;;